createdAt,value
2019-05-11T00:00:55.752Z,1.80
2019-05-11T00:01:55.768Z,1.70
2019-05-11T00:02:55.736Z,1.30
2019-05-11T00:03:55.721Z,1.60
2019-05-11T00:04:55.719Z,1.30
2019-05-11T00:05:55.720Z,1.30
2019-05-11T00:06:55.685Z,1.40
2019-05-11T00:07:55.673Z,1.40
2019-05-11T00:08:55.667Z,1.60
2019-05-11T00:09:58.435Z,1.50
2019-05-11T00:10:55.651Z,1.30
2019-05-11T00:11:55.629Z,1.40
2019-05-11T00:12:55.615Z,1.40
2019-05-11T00:13:55.637Z,1.60
2019-05-11T00:15:03.149Z,1.70
2019-05-11T00:15:55.633Z,1.40
2019-05-11T00:16:55.581Z,1.30
2019-05-11T00:17:55.603Z,1.30
2019-05-11T00:18:55.550Z,1.10
2019-05-11T00:19:55.541Z,1.60
2019-05-11T00:20:55.556Z,1.50
2019-05-11T00:21:55.544Z,1.70
2019-05-11T00:22:55.508Z,1.50
2019-05-11T00:23:55.504Z,1.40
2019-05-11T00:24:55.482Z,1.40
2019-05-11T00:25:55.496Z,1.50
2019-05-11T00:26:55.478Z,1.20
2019-05-11T00:27:55.466Z,1.50
2019-05-11T00:28:55.439Z,1.40
2019-05-11T00:29:55.433Z,1.30
2019-05-11T00:30:55.415Z,1.50
2019-05-11T00:31:55.422Z,1.40
2019-05-11T00:32:55.425Z,1.90
2019-05-11T00:33:55.382Z,1.60
2019-05-11T00:34:55.375Z,1.80
2019-05-11T00:35:55.371Z,1.60
2019-05-11T00:36:55.370Z,1.50
2019-05-11T00:37:55.377Z,1.40
2019-05-11T00:38:55.360Z,1.70
2019-05-11T00:39:55.316Z,1.90
2019-05-11T00:40:55.314Z,1.80
2019-05-11T00:41:55.294Z,1.90
2019-05-11T00:42:55.282Z,1.20
2019-05-11T00:43:55.305Z,1.30
2019-05-11T00:44:55.280Z,1.50
2019-05-11T00:45:55.251Z,1.70
2019-05-11T00:46:55.244Z,1.70
2019-05-11T00:47:55.227Z,1.80
2019-05-11T00:48:55.215Z,1.40
2019-05-11T00:49:55.244Z,1.40
2019-05-11T00:50:55.199Z,1.60
2019-05-11T00:51:55.182Z,1.60
2019-05-11T00:52:55.177Z,1.50
2019-05-11T00:53:55.157Z,1.30
2019-05-11T00:54:55.166Z,1.50
2019-05-11T00:55:55.164Z,1.90
2019-05-11T00:56:55.132Z,2.00
2019-05-11T00:57:55.116Z,1.30
2019-05-11T00:58:55.107Z,1.70
2019-05-11T00:59:55.115Z,1.40
2019-05-11T01:00:55.110Z,1.40
2019-05-11T01:01:55.089Z,1.40
2019-05-11T01:02:55.059Z,1.40
2019-05-11T01:03:55.048Z,1.40
2019-05-11T01:04:55.085Z,1.80
2019-05-11T01:05:55.053Z,1.60
2019-05-11T01:06:55.024Z,1.50
2019-05-11T01:07:55.010Z,1.30
2019-05-11T01:08:55.028Z,1.50
2019-05-11T01:09:54.980Z,1.50
2019-05-11T01:10:54.991Z,1.10
2019-05-11T01:11:54.962Z,1.50
2019-05-11T01:12:54.959Z,1.40
2019-05-11T01:13:54.937Z,1.00
2019-05-11T01:14:54.946Z,1.40
2019-05-11T01:15:54.937Z,1.60
2019-05-11T01:16:54.919Z,1.30
2019-05-11T01:17:54.936Z,1.30
2019-05-11T01:18:54.886Z,1.10
2019-05-11T01:19:54.872Z,1.40
2019-05-11T01:20:54.895Z,1.10
2019-05-11T01:21:54.867Z,1.20
2019-05-11T01:22:54.836Z,1.30
2019-05-11T01:23:54.829Z,1.20
2019-05-11T01:24:54.820Z,1.90
2019-05-11T01:25:54.833Z,1.20
2019-05-11T01:26:54.808Z,1.50
2019-05-11T01:27:54.787Z,1.20
2019-05-11T01:28:54.774Z,1.50
2019-05-11T01:29:54.759Z,1.50
2019-05-11T01:30:54.753Z,1.00
2019-05-11T01:31:54.756Z,1.50
2019-05-11T01:32:54.740Z,1.50
2019-05-11T01:33:54.716Z,1.40
2019-05-11T01:34:54.703Z,1.40
2019-05-11T01:35:54.701Z,1.50
2019-05-11T01:36:54.721Z,1.00
2019-05-11T01:37:54.677Z,1.50
2019-05-11T01:38:54.669Z,1.40
2019-05-11T01:39:54.653Z,1.50
2019-05-11T01:40:58.890Z,1.10
2019-05-11T01:41:54.637Z,1.20
2019-05-11T01:42:54.637Z,1.30
2019-05-11T01:43:54.606Z,1.40
2019-05-11T01:44:54.594Z,1.30
2019-05-11T01:45:54.580Z,1.10
2019-05-11T01:46:54.587Z,1.00
2019-05-11T01:47:54.586Z,1.20
2019-05-11T01:48:54.547Z,1.20
2019-05-11T01:49:54.544Z,1.00
2019-05-11T01:50:54.524Z,1.10
2019-05-11T01:51:54.545Z,1.10
2019-05-11T01:52:54.513Z,1.10
2019-05-11T01:53:54.511Z,1.30
2019-05-11T01:54:54.494Z,1.20
2019-05-11T01:55:54.486Z,1.20
2019-05-11T01:56:54.463Z,1.20
2019-05-11T01:57:54.461Z,0.90
2019-05-11T01:58:54.462Z,1.40
2019-05-11T01:59:54.437Z,0.80
2019-05-11T02:00:54.422Z,1.20
2019-05-11T02:01:54.408Z,1.30
2019-05-11T02:02:54.421Z,1.10
2019-05-11T02:03:54.383Z,1.00
2019-05-11T02:04:54.372Z,0.80
2019-05-11T02:05:54.390Z,0.90
2019-05-11T02:06:54.350Z,1.00
2019-05-11T02:07:54.338Z,0.90
2019-05-11T02:08:54.326Z,1.10
2019-05-11T02:09:54.315Z,1.10
2019-05-11T02:10:54.328Z,0.90
2019-05-11T02:11:54.313Z,1.00
2019-05-11T02:12:54.280Z,1.10
2019-05-11T02:13:54.270Z,1.10
2019-05-11T02:14:54.261Z,1.10
2019-05-11T02:15:54.247Z,1.10
2019-05-11T02:16:54.253Z,1.10
2019-05-11T02:17:54.241Z,1.20
2019-05-11T02:18:54.281Z,1.40
2019-05-11T02:19:54.205Z,1.20
2019-05-11T02:20:54.190Z,1.30
2019-05-11T02:21:54.194Z,1.30
2019-05-11T02:22:54.171Z,1.00
2019-05-11T02:23:54.163Z,1.20
2019-05-11T02:24:54.170Z,1.00
2019-05-11T02:25:54.143Z,1.20
2019-05-11T02:26:54.140Z,1.00
2019-05-11T02:27:54.111Z,0.90
2019-05-11T02:28:54.105Z,1.40
2019-05-11T02:29:54.091Z,1.10
2019-05-11T02:30:54.112Z,1.30
2019-05-11T02:31:54.115Z,1.20
2019-05-11T02:32:54.059Z,1.30
2019-05-11T02:33:54.072Z,1.00
2019-05-11T02:34:54.050Z,1.60
2019-05-11T02:35:54.028Z,1.20
2019-05-11T02:36:54.012Z,1.00
2019-05-11T02:37:54.055Z,1.40
2019-05-11T02:38:53.992Z,1.10
2019-05-11T02:39:53.981Z,1.10
2019-05-11T02:40:53.967Z,1.30
2019-05-11T02:41:53.965Z,1.30
2019-05-11T02:42:53.947Z,1.30
2019-05-11T02:43:53.975Z,1.20
2019-05-11T02:44:53.948Z,1.10
2019-05-11T02:45:53.919Z,1.10
2019-05-11T02:46:53.902Z,1.70
2019-05-11T02:47:53.898Z,1.00
2019-05-11T02:48:53.877Z,1.10
2019-05-11T02:49:53.934Z,1.10
2019-05-11T02:50:53.866Z,1.10
2019-05-11T02:51:53.862Z,1.10
2019-05-11T02:52:53.841Z,1.40
2019-05-11T02:53:53.824Z,1.30
2019-05-11T02:54:53.811Z,1.30
2019-05-11T02:55:53.817Z,1.40
2019-05-11T02:56:53.795Z,1.10
2019-05-11T02:57:53.783Z,1.30
2019-05-11T02:58:53.785Z,1.40
2019-05-11T02:59:53.772Z,1.30
2019-05-11T03:00:53.761Z,1.30
2019-05-11T03:01:53.756Z,1.30
2019-05-11T03:02:53.733Z,1.50
2019-05-11T03:03:53.713Z,1.50
2019-05-11T03:04:53.745Z,1.10
2019-05-11T03:05:53.720Z,1.40
2019-05-11T03:06:53.688Z,1.20
2019-05-11T03:07:53.673Z,1.50
2019-05-11T03:08:53.655Z,1.20
2019-05-11T03:09:53.652Z,1.60
2019-05-11T03:10:53.682Z,1.30
2019-05-11T03:11:56.071Z,1.50
2019-05-11T03:12:53.613Z,1.30
2019-05-11T03:13:53.603Z,1.40
2019-05-11T03:14:53.612Z,1.30
2019-05-11T03:15:53.587Z,1.60
2019-05-11T03:16:53.607Z,1.30
2019-05-11T03:17:53.565Z,1.50
2019-05-11T03:18:53.551Z,1.60
2019-05-11T03:19:53.535Z,1.30
2019-05-11T03:20:53.522Z,1.30
2019-05-11T03:21:53.530Z,1.60
2019-05-11T03:22:53.550Z,1.20
2019-05-11T03:23:53.510Z,1.00
2019-05-11T03:24:53.487Z,1.60
2019-05-11T03:25:53.471Z,1.40
2019-05-11T03:26:53.459Z,1.10
2019-05-11T03:27:53.447Z,1.40
2019-05-11T03:28:53.477Z,1.10
2019-05-11T03:29:53.423Z,1.70
2019-05-11T03:30:53.413Z,1.20
2019-05-11T03:31:53.413Z,1.20
2019-05-11T03:32:53.406Z,1.40
2019-05-11T03:33:53.420Z,1.30
2019-05-11T03:34:53.399Z,1.50
2019-05-11T03:35:53.363Z,1.50
2019-05-11T03:36:53.367Z,1.20
2019-05-11T03:37:53.342Z,1.30
2019-05-11T03:38:53.323Z,1.80
2019-05-11T03:39:53.318Z,1.60
2019-05-11T03:40:53.330Z,1.30
2019-05-11T03:41:53.294Z,1.50
2019-05-11T03:42:53.283Z,1.50
2019-05-11T03:43:53.281Z,1.60
2019-05-11T03:44:53.258Z,1.30
2019-05-11T03:45:53.262Z,1.30
2019-05-11T03:46:53.248Z,1.40
2019-05-11T03:47:53.222Z,1.50
2019-05-11T03:48:53.222Z,1.70
2019-05-11T03:49:53.232Z,1.30
2019-05-11T03:50:53.193Z,1.30
2019-05-11T03:51:53.203Z,1.60
2019-05-11T03:52:53.171Z,1.10
2019-05-11T03:53:53.159Z,1.50
2019-05-11T03:54:53.144Z,1.60
2019-05-11T03:55:53.136Z,1.60
2019-05-11T03:56:53.172Z,1.90
2019-05-11T03:57:53.114Z,1.70
2019-05-11T03:58:53.100Z,1.40
2019-05-11T03:59:53.089Z,1.70
2019-05-11T04:00:53.079Z,1.20
2019-05-11T04:01:53.111Z,1.50
2019-05-11T04:02:53.082Z,1.10
2019-05-11T04:03:53.049Z,1.80
2019-05-11T04:04:53.042Z,1.80
2019-05-11T04:05:53.025Z,1.60
2019-05-11T04:06:53.013Z,1.70
2019-05-11T04:07:53.015Z,1.60
2019-05-11T04:08:52.993Z,1.60
2019-05-11T04:09:53.017Z,1.40
2019-05-11T04:10:52.969Z,1.70
2019-05-11T04:11:52.972Z,2.20
2019-05-11T04:12:52.968Z,1.50
2019-05-11T04:13:52.935Z,1.60
2019-05-11T04:14:52.933Z,1.70
2019-05-11T04:15:52.940Z,1.90
2019-05-11T04:16:52.901Z,1.90
2019-05-11T04:17:52.922Z,1.60
2019-05-11T04:18:52.879Z,1.60
2019-05-11T04:19:52.865Z,1.60
2019-05-11T04:20:52.876Z,2.20
2019-05-11T04:21:52.850Z,1.50
2019-05-11T04:22:52.852Z,1.50
2019-05-11T04:23:52.839Z,2.00
2019-05-11T04:24:52.811Z,1.80
2019-05-11T04:25:52.806Z,1.90
2019-05-11T04:26:52.811Z,1.90
2019-05-11T04:27:52.916Z,1.60
2019-05-11T04:28:52.782Z,1.70
2019-05-11T04:29:52.769Z,1.70
2019-05-11T04:30:52.749Z,1.80
2019-05-11T04:31:52.747Z,1.70
2019-05-11T04:32:52.740Z,1.70
2019-05-11T04:33:52.725Z,1.70
2019-05-11T04:34:52.699Z,1.90
2019-05-11T04:35:52.733Z,2.00
2019-05-11T04:36:52.676Z,1.80
2019-05-11T04:37:52.693Z,1.70
2019-05-11T04:38:52.662Z,1.60
2019-05-11T04:39:52.646Z,1.80
2019-05-11T04:40:52.650Z,1.60
2019-05-11T04:41:52.630Z,2.00
2019-05-11T04:42:55.659Z,1.70
2019-05-11T04:43:52.607Z,1.60
2019-05-11T04:44:52.931Z,1.70
2019-05-11T04:45:52.600Z,1.60
2019-05-11T04:46:52.567Z,1.40
2019-05-11T04:47:52.558Z,2.30
2019-05-11T04:48:52.545Z,1.90
2019-05-11T04:49:52.557Z,1.70
2019-05-11T04:50:52.561Z,1.50
2019-05-11T04:51:52.522Z,2.20
2019-05-11T04:52:52.506Z,1.60
2019-05-11T04:53:52.491Z,1.90
2019-05-11T04:54:52.478Z,1.60
2019-05-11T04:55:52.480Z,1.10
2019-05-11T04:56:52.531Z,1.80
2019-05-11T04:57:52.453Z,1.50
2019-05-11T04:58:52.453Z,1.90
2019-05-11T04:59:52.424Z,1.20
2019-05-11T05:00:52.419Z,1.60
2019-05-11T05:01:52.407Z,1.50
2019-05-11T05:02:52.403Z,1.90
2019-05-11T05:03:54.264Z,1.20
2019-05-11T05:04:52.369Z,1.80
2019-05-11T05:05:52.360Z,1.40
2019-05-11T05:06:59.849Z,1.40
2019-05-11T05:08:07.426Z,1.60
2019-05-11T05:08:57.848Z,1.40
2019-05-11T05:09:53.388Z,1.60
2019-05-11T05:10:57.887Z,1.30
2019-05-11T05:11:53.289Z,1.20
2019-05-11T05:12:53.442Z,1.40
2019-05-11T05:13:53.709Z,1.30
2019-05-11T05:14:52.258Z,1.50
2019-05-11T05:15:52.291Z,1.50
2019-05-11T05:16:52.236Z,1.50
2019-05-11T05:17:52.224Z,1.50
2019-05-11T05:18:52.224Z,1.60
2019-05-11T05:19:52.205Z,1.40
2019-05-11T05:20:52.195Z,2.00
2019-05-11T05:21:52.192Z,1.30
2019-05-11T05:22:52.254Z,1.60
2019-05-11T05:23:52.176Z,1.40
2019-05-11T05:24:52.145Z,1.50
2019-05-11T05:25:52.135Z,1.50
2019-05-11T05:26:52.121Z,1.40
2019-05-11T05:27:52.124Z,1.60
2019-05-11T05:28:52.129Z,1.50
2019-05-11T05:29:52.093Z,1.10
2019-05-11T05:30:52.088Z,1.30
2019-05-11T05:31:52.069Z,1.20
2019-05-11T05:32:52.060Z,1.10
2019-05-11T05:33:52.067Z,1.20
2019-05-11T05:34:52.073Z,1.50
2019-05-11T05:35:52.025Z,1.40
2019-05-11T05:36:52.052Z,1.60
2019-05-11T05:37:52.007Z,1.40
2019-05-11T05:38:51.990Z,1.10
2019-05-11T05:39:51.976Z,1.30
2019-05-11T05:40:51.982Z,1.30
2019-05-11T05:41:57.164Z,1.60
2019-05-11T05:42:52.957Z,1.60
2019-05-11T05:43:51.937Z,1.30
2019-05-11T05:44:51.923Z,1.50
2019-05-11T05:45:51.918Z,1.00
2019-05-11T05:46:51.915Z,1.30
2019-05-11T05:47:51.905Z,1.60
2019-05-11T05:48:51.891Z,1.10
2019-05-11T05:49:51.868Z,0.90
2019-05-11T05:50:51.858Z,1.00
2019-05-11T05:51:51.845Z,1.00
2019-05-11T05:52:51.880Z,1.40
2019-05-11T05:53:51.827Z,1.60
2019-05-11T05:54:51.817Z,1.40
2019-05-11T05:55:51.798Z,1.60
2019-05-11T05:56:51.795Z,1.10
2019-05-11T05:57:51.780Z,1.20
2019-05-11T05:58:51.831Z,1.20
2019-05-11T05:59:51.759Z,1.40
2019-05-11T06:00:51.747Z,0.90
2019-05-11T06:01:51.735Z,1.30
2019-05-11T06:02:51.728Z,1.40
2019-05-11T06:03:51.710Z,0.90
2019-05-11T06:04:51.728Z,1.30
2019-05-11T06:05:51.690Z,1.20
2019-05-11T06:06:51.675Z,1.00
2019-05-11T06:07:51.663Z,1.00
2019-05-11T06:08:51.653Z,0.90
2019-05-11T06:09:51.642Z,1.50
2019-05-11T06:10:51.662Z,1.00
2019-05-11T06:11:51.631Z,1.00
2019-05-11T06:12:51.608Z,0.80
2019-05-11T06:13:51.596Z,1.10
2019-05-11T06:14:51.586Z,0.80
2019-05-11T06:16:00.426Z,0.80
2019-05-11T06:16:51.569Z,1.00
2019-05-11T06:17:51.555Z,0.80
2019-05-11T06:18:51.560Z,1.00
2019-05-11T06:19:51.576Z,0.90
2019-05-11T06:20:51.541Z,1.10
2019-05-11T06:21:51.559Z,1.00
2019-05-11T06:22:51.504Z,0.70
2019-05-11T06:23:51.487Z,0.90
2019-05-11T06:24:51.475Z,1.00
2019-05-11T06:25:51.500Z,1.30
2019-05-11T06:26:51.461Z,1.00
2019-05-11T06:27:51.489Z,1.00
2019-05-11T06:28:51.432Z,1.30
2019-05-11T06:29:51.421Z,1.10
2019-05-11T06:30:51.432Z,0.80
2019-05-11T06:31:51.412Z,1.00
2019-05-11T06:32:51.385Z,0.80
2019-05-11T06:33:51.402Z,1.00
2019-05-11T06:34:51.402Z,1.00
2019-05-11T06:35:51.355Z,1.40
2019-05-11T06:36:51.354Z,0.90
2019-05-11T06:37:51.333Z,1.10
2019-05-11T06:38:51.333Z,0.80
2019-05-11T06:39:51.311Z,0.90
2019-05-11T06:40:51.300Z,0.80
2019-05-11T06:41:51.292Z,0.80
2019-05-11T06:42:51.286Z,0.70
2019-05-11T06:44:01.375Z,1.00
2019-05-11T06:44:52.283Z,1.10
2019-05-11T06:45:51.249Z,0.90
2019-05-11T06:46:51.239Z,0.80
2019-05-11T06:47:51.233Z,0.90
2019-05-11T06:48:51.230Z,0.70
2019-05-11T06:49:51.220Z,0.80
2019-05-11T06:50:51.192Z,1.20
2019-05-11T06:51:51.179Z,1.10
2019-05-11T06:52:51.163Z,0.80
2019-05-11T06:53:51.157Z,0.70
2019-05-11T06:54:51.174Z,0.90
2019-05-11T06:55:51.130Z,0.90
2019-05-11T06:56:51.132Z,1.00
2019-05-11T06:57:51.108Z,1.20
2019-05-11T06:58:51.099Z,0.80
2019-05-11T06:59:51.143Z,0.80
2019-05-11T07:00:51.070Z,1.10
2019-05-11T07:01:51.067Z,0.80
2019-05-11T07:02:51.055Z,0.80
2019-05-11T07:03:51.057Z,0.70
2019-05-11T07:04:51.036Z,0.60
2019-05-11T07:05:51.033Z,1.00
2019-05-11T07:06:51.013Z,0.90
2019-05-11T07:07:51.019Z,0.70
2019-05-11T07:08:51.009Z,0.90
2019-05-11T07:09:50.976Z,0.60
2019-05-11T07:10:50.995Z,0.50
2019-05-11T07:11:50.968Z,1.00
2019-05-11T07:12:50.949Z,0.90
2019-05-11T07:13:50.936Z,0.70
2019-05-11T07:14:50.933Z,1.10
2019-05-11T07:15:50.938Z,1.30
2019-05-11T07:16:50.916Z,0.70
2019-05-11T07:17:50.899Z,0.80
2019-05-11T07:18:50.902Z,0.80
2019-05-11T07:19:50.861Z,0.80
2019-05-11T07:20:51.150Z,0.60
2019-05-11T07:21:50.842Z,0.70
2019-05-11T07:22:50.857Z,1.10
2019-05-11T07:23:50.817Z,0.80
2019-05-11T07:24:50.818Z,0.80
2019-05-11T07:25:50.795Z,0.50
2019-05-11T07:26:50.784Z,0.80
2019-05-11T07:27:50.792Z,1.00
2019-05-11T07:28:50.914Z,0.70
2019-05-11T07:29:50.758Z,0.60
2019-05-11T07:30:50.737Z,1.00
2019-05-11T07:31:50.731Z,1.00
2019-05-11T07:32:50.730Z,0.60
2019-05-11T07:33:50.735Z,0.90
2019-05-11T07:34:50.693Z,0.80
2019-05-11T07:35:50.688Z,0.70
2019-05-11T07:36:50.675Z,0.60
2019-05-11T07:37:50.664Z,0.80
2019-05-11T07:38:50.649Z,0.70
2019-05-11T07:39:50.660Z,0.60
2019-05-11T07:40:50.625Z,0.60
2019-05-11T07:41:50.634Z,0.90
2019-05-11T07:42:50.603Z,0.80
2019-05-11T07:43:50.631Z,0.80
2019-05-11T07:44:50.580Z,0.60
2019-05-11T07:45:50.573Z,0.70
2019-05-11T07:46:50.560Z,0.80
2019-05-11T07:47:50.547Z,1.00
2019-05-11T07:48:50.536Z,0.60
2019-05-11T07:49:50.563Z,0.70
2019-05-11T07:50:50.528Z,0.50
2019-05-11T07:51:50.523Z,0.60
2019-05-11T07:52:50.492Z,1.20
2019-05-11T07:53:50.485Z,0.60
2019-05-11T07:54:52.945Z,0.90
2019-05-11T07:55:50.467Z,0.80
2019-05-11T07:56:50.496Z,0.80
2019-05-11T07:57:50.457Z,0.70
2019-05-11T07:58:50.425Z,0.90
2019-05-11T07:59:50.416Z,0.70
2019-05-11T08:00:50.409Z,1.00
2019-05-11T08:01:50.393Z,0.80
2019-05-11T08:02:50.399Z,1.00
2019-05-11T08:03:50.377Z,0.70
2019-05-11T08:04:50.361Z,0.80
2019-05-11T08:05:50.346Z,0.70
2019-05-11T08:06:50.367Z,0.60
2019-05-11T08:07:50.359Z,0.80
2019-05-11T08:08:50.313Z,0.50
2019-05-11T08:09:50.303Z,1.00
2019-05-11T08:10:50.292Z,1.10
2019-05-11T08:11:50.308Z,0.60
2019-05-11T08:12:50.266Z,1.10
2019-05-11T08:13:50.261Z,0.90
2019-05-11T08:14:59.055Z,0.80
2019-05-11T08:15:51.242Z,0.60
2019-05-11T08:16:50.228Z,1.10
2019-05-11T08:17:50.250Z,0.80
2019-05-11T08:18:50.222Z,1.00
2019-05-11T08:19:50.194Z,0.70
2019-05-11T08:20:50.184Z,0.70
2019-05-11T08:21:50.169Z,0.70
2019-05-11T08:22:50.155Z,0.60
2019-05-11T08:23:50.182Z,0.70
2019-05-11T08:24:50.138Z,0.60
2019-05-11T08:25:50.124Z,0.60
2019-05-11T08:26:50.112Z,0.60
2019-05-11T08:27:50.100Z,1.10
2019-05-11T08:28:50.088Z,1.10
2019-05-11T08:29:50.105Z,1.10
2019-05-11T08:30:50.072Z,0.60
2019-05-11T08:31:50.058Z,0.70
2019-05-11T08:32:50.062Z,0.80
2019-05-11T08:33:50.040Z,1.20
2019-05-11T08:34:50.022Z,1.00
2019-05-11T08:35:50.056Z,0.70
2019-05-11T08:36:50.004Z,0.80
2019-05-11T08:37:49.999Z,0.40
2019-05-11T08:38:49.982Z,0.60
2019-05-11T08:39:49.968Z,0.50
2019-05-11T08:40:49.979Z,0.60
2019-05-11T08:41:49.950Z,0.50
2019-05-11T08:42:49.932Z,0.90
2019-05-11T08:43:49.928Z,1.00
2019-05-11T08:44:49.910Z,0.90
2019-05-11T08:45:49.898Z,0.60
2019-05-11T08:46:49.925Z,0.80
2019-05-11T08:47:49.882Z,0.60
2019-05-11T08:48:49.872Z,0.80
2019-05-11T08:49:49.855Z,0.50
2019-05-11T08:50:49.842Z,0.70
2019-05-11T08:51:49.838Z,0.60
2019-05-11T08:52:49.832Z,0.50
2019-05-11T08:53:49.818Z,0.70
2019-05-11T08:54:49.798Z,1.00
2019-05-11T08:55:49.785Z,0.90
2019-05-11T08:56:49.776Z,0.60
2019-05-11T08:57:49.787Z,1.00
2019-05-11T08:58:49.759Z,1.00
2019-05-11T08:59:49.756Z,1.00
2019-05-11T09:00:49.730Z,0.60
2019-05-11T09:01:49.731Z,0.80
2019-05-11T09:02:50.914Z,0.50
2019-05-11T09:03:49.700Z,0.80
2019-05-11T09:04:49.701Z,0.70
2019-05-11T09:05:49.675Z,0.60
2019-05-11T09:06:49.667Z,0.70
2019-05-11T09:07:49.660Z,0.60
2019-05-11T09:08:49.677Z,0.70
2019-05-11T09:09:49.631Z,0.80
2019-05-11T09:10:49.620Z,0.70
2019-05-11T09:11:49.609Z,0.90
2019-05-11T09:12:49.612Z,0.60
2019-05-11T09:13:49.589Z,0.90
2019-05-11T09:14:49.609Z,0.50
2019-05-11T09:15:49.585Z,0.90
2019-05-11T09:16:49.552Z,0.70
2019-05-11T09:17:49.582Z,1.30
2019-05-11T09:18:49.530Z,0.90
2019-05-11T09:19:49.571Z,0.80
2019-05-11T09:20:49.563Z,0.70
2019-05-11T09:21:49.504Z,0.70
2019-05-11T09:22:49.490Z,0.70
2019-05-11T09:23:49.476Z,0.80
2019-05-11T09:24:49.464Z,0.50
2019-05-11T09:25:49.497Z,0.70
2019-05-11T09:26:49.463Z,0.50
2019-05-11T09:27:49.450Z,0.60
2019-05-11T09:28:49.420Z,0.70
2019-05-11T09:29:49.482Z,0.70
2019-05-11T09:30:49.417Z,0.70
2019-05-11T09:31:49.411Z,0.90
2019-05-11T09:32:49.380Z,0.60
2019-05-11T09:33:49.365Z,0.60
2019-05-11T09:34:49.379Z,0.80
2019-05-11T09:35:53.073Z,0.50
2019-05-11T09:36:49.341Z,0.80
2019-05-11T09:37:49.335Z,0.90
2019-05-11T09:38:49.328Z,0.60
2019-05-11T09:39:49.337Z,0.70
2019-05-11T09:40:49.298Z,0.60
2019-05-11T09:41:49.286Z,1.10
2019-05-11T09:42:49.265Z,0.90
2019-05-11T09:43:49.257Z,0.70
2019-05-11T09:44:49.245Z,0.40
2019-05-11T09:45:52.030Z,0.50
2019-05-11T09:46:49.221Z,0.80
2019-05-11T09:47:49.220Z,0.60
2019-05-11T09:48:49.219Z,0.70
2019-05-11T09:49:51.124Z,0.60
2019-05-11T09:50:49.178Z,0.80
2019-05-11T09:51:49.164Z,0.90
2019-05-11T09:52:49.259Z,0.90
2019-05-11T09:53:49.169Z,0.50
2019-05-11T09:54:49.159Z,0.80
2019-05-11T09:55:49.127Z,0.90
2019-05-11T09:56:49.105Z,1.10
2019-05-11T09:57:49.105Z,0.60
2019-05-11T09:58:49.113Z,0.80
2019-05-11T09:59:49.071Z,0.60
2019-05-11T10:00:49.077Z,0.70
2019-05-11T10:01:49.059Z,0.60
2019-05-11T10:02:49.065Z,0.70
2019-05-11T10:03:49.036Z,1.00
2019-05-11T10:04:49.021Z,0.80
2019-05-11T10:05:49.025Z,0.80
2019-05-11T10:06:49.004Z,0.70
2019-05-11T10:07:48.984Z,0.90
2019-05-11T10:08:49.024Z,0.80
2019-05-11T10:09:48.963Z,0.70
2019-05-11T10:10:48.986Z,1.10
2019-05-11T10:11:48.949Z,0.70
2019-05-11T10:12:52.315Z,0.80
2019-05-11T10:13:48.917Z,0.70
2019-05-11T10:14:48.920Z,0.70
2019-05-11T10:16:03.678Z,0.70
2019-05-11T10:16:49.893Z,0.90
2019-05-11T10:17:48.881Z,0.80
2019-05-11T10:18:49.420Z,0.90
2019-05-11T10:19:49.726Z,0.80
2019-05-11T10:20:48.852Z,0.90
2019-05-11T10:21:48.868Z,1.00
2019-05-11T10:22:48.887Z,0.80
2019-05-11T10:23:49.152Z,0.80
2019-05-11T10:24:48.796Z,0.90
2019-05-11T10:25:48.786Z,1.00
2019-05-11T10:26:48.840Z,0.70
2019-05-11T10:27:49.149Z,1.00
2019-05-11T10:28:48.778Z,0.90
2019-05-11T10:29:48.768Z,1.00
2019-05-11T10:30:48.882Z,0.80
2019-05-11T10:31:48.745Z,1.20
2019-05-11T10:32:48.706Z,0.90
2019-05-11T10:33:49.190Z,0.80
2019-05-11T10:34:48.697Z,0.60
2019-05-11T10:35:48.672Z,0.80
2019-05-11T10:36:48.849Z,0.80
2019-05-11T10:37:48.664Z,0.90
2019-05-11T10:38:48.972Z,0.90
2019-05-11T10:39:48.931Z,0.80
2019-05-11T10:40:48.679Z,0.80
2019-05-11T10:41:48.614Z,0.80
2019-05-11T10:42:48.662Z,0.90
2019-05-11T10:43:49.101Z,0.70
2019-05-11T10:44:48.595Z,1.30
2019-05-11T10:45:48.586Z,0.80
2019-05-11T10:46:48.571Z,0.80
2019-05-11T10:47:49.126Z,0.90
2019-05-11T10:48:48.580Z,0.70
2019-05-11T10:49:48.644Z,0.70
2019-05-11T10:50:48.546Z,0.80
2019-05-11T10:51:48.775Z,1.40
2019-05-11T10:52:48.653Z,1.00
2019-05-11T10:53:51.762Z,1.30
2019-05-11T10:54:48.464Z,1.10
2019-05-11T10:55:48.452Z,0.90
2019-05-11T10:56:48.439Z,0.80
2019-05-11T10:57:48.867Z,1.20
2019-05-11T10:58:48.462Z,1.00
2019-05-11T10:59:49.008Z,1.00
2019-05-11T11:00:48.430Z,0.90
2019-05-11T11:01:48.596Z,1.30
2019-05-11T11:02:48.378Z,1.00
2019-05-11T11:03:48.626Z,1.10
2019-05-11T11:04:48.669Z,0.90
2019-05-11T11:05:48.895Z,1.20
2019-05-11T11:06:48.683Z,1.00
2019-05-11T11:07:48.637Z,1.10
2019-05-11T11:08:48.856Z,1.10
2019-05-11T11:09:49.046Z,1.00
2019-05-11T11:10:48.570Z,1.20
2019-05-11T11:11:48.926Z,1.00
2019-05-11T11:12:48.967Z,1.00
2019-05-11T11:13:48.334Z,0.80
2019-05-11T11:14:48.354Z,0.70
2019-05-11T11:15:48.590Z,1.10
2019-05-11T11:16:48.248Z,1.30
2019-05-11T11:17:48.655Z,1.10
2019-05-11T11:18:48.781Z,1.10
2019-05-11T11:19:48.743Z,1.30
2019-05-11T11:20:48.878Z,1.30
2019-05-11T11:21:48.853Z,1.20
2019-05-11T11:22:48.518Z,1.30
2019-05-11T11:23:48.312Z,1.20
2019-05-11T11:24:48.318Z,1.40
2019-05-11T11:25:48.327Z,1.40
2019-05-11T11:26:48.732Z,1.00
2019-05-11T11:27:48.701Z,1.20
2019-05-11T11:28:48.092Z,1.80
2019-05-11T11:29:48.069Z,1.40
2019-05-11T11:30:48.225Z,1.10
2019-05-11T11:31:48.281Z,1.80
2019-05-11T11:32:48.424Z,1.30
2019-05-11T11:33:48.974Z,1.20
2019-05-11T11:34:48.530Z,1.30
2019-05-11T11:35:48.133Z,1.40
2019-05-11T11:36:48.346Z,1.20
2019-05-11T11:37:48.118Z,1.20
2019-05-11T11:38:48.242Z,1.50
2019-05-11T11:39:48.171Z,1.20
2019-05-11T11:40:48.330Z,1.40
2019-05-11T11:41:48.673Z,1.10
2019-05-11T11:42:48.070Z,1.20
2019-05-11T11:43:48.478Z,1.30
2019-05-11T11:44:48.405Z,1.10
2019-05-11T11:45:48.448Z,1.30
2019-05-11T11:46:54.599Z,1.20
2019-05-11T11:47:49.560Z,1.10
2019-05-11T11:48:48.950Z,1.00
2019-05-11T11:49:47.898Z,1.40
2019-05-11T11:50:48.124Z,1.30
2019-05-11T11:51:48.401Z,0.90
2019-05-11T11:52:47.862Z,1.10
2019-05-11T11:53:48.170Z,0.90
2019-05-11T11:54:48.026Z,0.70
2019-05-11T11:55:48.296Z,0.70
2019-05-11T11:56:48.525Z,0.90
2019-05-11T11:57:48.636Z,0.80
2019-05-11T11:58:48.844Z,1.00
2019-05-11T11:59:48.238Z,1.00
2019-05-11T12:00:48.314Z,1.00
2019-05-11T12:01:48.802Z,1.30
2019-05-11T12:02:48.762Z,1.30
2019-05-11T12:03:48.735Z,1.10
2019-05-11T12:04:48.622Z,1.20
2019-05-11T12:05:47.897Z,1.00
2019-05-11T12:06:49.090Z,1.20
2019-05-11T12:07:49.109Z,0.90
2019-05-11T12:08:49.787Z,0.70
2019-05-11T12:09:48.364Z,1.30
2019-05-11T12:10:48.452Z,0.90
2019-05-11T12:11:48.579Z,0.90
2019-05-11T12:12:47.701Z,0.80
2019-05-11T12:13:47.902Z,0.80
2019-05-11T12:14:48.166Z,1.20
2019-05-11T12:15:48.249Z,1.20
2019-05-11T12:16:49.285Z,0.90
2019-05-11T12:17:48.566Z,1.10
2019-05-11T12:18:48.740Z,1.50
2019-05-11T12:19:47.982Z,1.20
2019-05-11T12:20:48.060Z,0.90
2019-05-11T12:21:48.414Z,0.90
2019-05-11T12:22:58.151Z,1.20
2019-05-11T12:23:48.619Z,1.00
2019-05-11T12:24:48.189Z,1.30
2019-05-11T12:25:48.721Z,0.90
2019-05-11T12:26:48.006Z,1.30
2019-05-11T12:27:49.010Z,1.10
2019-05-11T12:28:49.000Z,1.10
2019-05-11T12:29:47.768Z,0.90
2019-05-11T12:30:48.108Z,1.00
2019-05-11T12:31:48.540Z,1.30
2019-05-11T12:32:48.818Z,0.90
2019-05-11T12:33:48.268Z,1.30
2019-05-11T12:34:48.201Z,1.20
2019-05-11T12:35:48.196Z,1.10
2019-05-11T12:36:48.010Z,1.00
2019-05-11T12:37:48.515Z,0.80
2019-05-11T12:38:48.842Z,1.30
2019-05-11T12:39:47.870Z,1.00
2019-05-11T12:40:47.803Z,1.20
2019-05-11T12:41:47.907Z,0.80
2019-05-11T12:42:48.854Z,0.80
2019-05-11T12:43:48.890Z,1.10
2019-05-11T12:44:48.179Z,1.10
2019-05-11T12:45:48.153Z,0.90
2019-05-11T12:46:48.903Z,1.10
2019-05-11T12:47:47.945Z,1.10
2019-05-11T12:48:48.515Z,1.20
2019-05-11T12:49:48.381Z,1.20
2019-05-11T12:50:48.447Z,1.00
2019-05-11T12:51:48.745Z,1.20
2019-05-11T12:52:47.770Z,0.90
2019-05-11T12:53:47.751Z,0.90
2019-05-11T12:54:47.924Z,0.90
2019-05-11T12:55:48.329Z,1.00
2019-05-11T12:56:48.932Z,1.10
2019-05-11T12:57:47.796Z,0.90
2019-05-11T12:58:49.201Z,1.10
2019-05-11T12:59:48.694Z,1.00
2019-05-11T13:00:47.984Z,1.20
2019-05-11T13:01:48.601Z,0.90
2019-05-11T13:02:48.513Z,1.50
2019-05-11T13:03:49.284Z,0.80
2019-05-11T13:04:47.782Z,0.80
2019-05-11T13:05:48.441Z,1.20
2019-05-11T13:06:47.916Z,0.80
2019-05-11T13:07:48.132Z,0.70
2019-05-11T13:08:48.159Z,1.10
2019-05-11T13:09:48.512Z,0.90
2019-05-11T13:10:47.925Z,0.90
2019-05-11T13:11:48.159Z,1.00
2019-05-11T13:12:49.006Z,1.10
2019-05-11T13:13:48.444Z,0.70
2019-05-11T13:14:48.888Z,1.00
2019-05-11T13:15:47.906Z,1.20
2019-05-11T13:16:48.317Z,1.10
2019-05-11T13:17:49.002Z,1.00
2019-05-11T13:18:48.784Z,1.10